Portada
METAR-TAF:

METAR-TAF

Aeroports :

Huntsville, Alabama, Estats Units d'Amèrica

latitud: 34-51-41N, longitud: 086-33-26W, altitud: 230 m

Observació

L'informe es va fer fa 31 minuts, a les 15:55 UTC
Vent 7 kt del Oest/Sud-Oest
Temperatura 25°C
Humitat 89%
Pressió 1020 hPa
Visibilitat: 16.1 km
Cel ennuvolat a una alçada de 1100 ft
Cel ennuvolat a una alçada de 3000 ft
Cel cobert a una alçada de 9500 ft

METAR: KMDQ 171555Z AUTO 24007KT 10SM BKN011 BKN030 OVC095 25/23 A3013 RMK A02 LTG DSNT SW T02540229

Hora: 11:26 (16:26 UTC)


TAF: manca

Observacions i pronòstics meteorològics de més de 4000 aeroports (METAR i TAF).

Les estacions disponibles són els punts grocs i vermells al mapa.

Posi el ratolí al punt desitjat per veure el nom de l'estació.

Feu clic per veure les observacions i els pronòstics meteorològics.

Per canviar el mapa: feu clic els botons verds amb una creu de color negre per apropar; al botó verd amb un guió per allunyar la imatge; o en les fletxes verdes per a mapes adjacents.


METAR-TAF: